Latest Coastal Weather Observations for Yanakie

IDV60701

Issued at 5:32 pm EST Friday 17 September 2021 (issued every 10 minutes, with the page automatically refreshed every 10 minutes)

About coastal observations | Map of coastal stations | Coastal observations for VIC | Marine services | Other Formats
Station Details ID: 085301 Name: YANAKIE Lat: -38.81 Lon: 146.19 Height: 13.3 m
Data from the previous 72 hours. | See also: Recent months at Yanakie
Date/Time
EST
Wind Sea
Height
m
Swell Vis
km
Cloud Weather Temp
°C
Press
MSL
hPa
Rain since
9am
mm
Dir  Spd
kts
Gust
kts
Height
m
Period
s
Dir
17/05:30pm ENE 12 16 - - - - - - - 14.7 1008.2 0.0
17/05:00pm ENE 11 15 - - - - - - - 14.6 1009.0 0.0
17/04:30pm ENE 10 17 - - - - - - - 15.3 1008.7 0.0
17/04:00pm E 9 13 - - - - - - - 14.7 1009.4 0.0
17/03:30pm E 10 18 - - - - - - - 15.7 1009.6 0.0
17/03:00pm E 9 13 - - - - - - - 15.4 1010.5 0.0
17/02:30pm E 8 13 - - - - - - - 17.1 1011.5 0.0
17/02:00pm E 8 12 - - - - - - - 16.9 1011.4 0.0
17/01:30pm E 8 13 - - - - - - - 16.4 1011.3 0.0
17/01:00pm E 9 15 - - - - - - - 18.1 1011.2 0.0
17/12:30pm E 9 13 - - - - - - - 17.5 1012.0 0.0
17/12:00pm E 7 11 - - - - - - - 16.9 1013.0 0.0
17/11:30am E 8 11 - - - - - - - 16.6 1013.4 0.0
17/11:00am E 8 11 - - - - - - - 15.8 1014.2 0.0
17/10:30am ENE 8 10 - - - - - - - 15.2 1014.7 0.0
17/10:00am ENE 7 10 - - - - - - - 14.2 1014.9 0.0
17/09:30am ENE 7 9 - - - - - - - 13.3 1015.7 0.0
17/09:00am ENE 9 13 - - - - - - - 12.5 1015.4 0.0
17/08:30am ENE 10 14 - - - - - - - 11.9 1015.9 0.0
17/08:00am ENE 9 13 - - - - - - - 11.6 1016.3 0.0
17/07:30am ENE 9 12 - - - - - - - 11.2 1016.7 0.0
17/07:00am ENE 9 14 - - - - - - - 10.5 1016.4 0.0
17/06:30am E 6 8 - - - - - - - 9.3 1016.9 0.0
17/06:00am ENE 5 10 - - - - - - - 9.2 1017.1 0.0
17/05:30am E 6 10 - - - - - - - 9.2 1017.3 0.0
17/05:00am ENE 6 9 - - - - - - - 9.2 1017.5 0.0
17/04:30am E 6 10 - - - - - - - 9.1 1017.7 0.0
17/04:00am ENE 6 9 - - - - - - - 9.2 1017.9 0.0
17/03:30am ENE 7 10 - - - - - - - 9.7 1018.0 0.0
17/03:00am ENE 8 11 - - - - - - - 9.9 1018.4 0.0
17/02:30am ENE 8 12 - - - - - - - 10.1 1018.9 0.0
17/02:00am E 7 11 - - - - - - - 9.8 1019.4 0.0
17/01:30am E 6 8 - - - - - - - 9.7 1020.0 0.0
17/01:00am E 7 11 - - - - - - - 10.1 1020.3 0.0
17/12:30am ENE 8 12 - - - - - - - 10.5 1020.6 0.0
17/12:00am ENE 8 12 - - - - - - - 10.6 1020.6 0.0
 
Date/Time
EST
Wind Sea
Height
m
Swell Vis
km
Cloud Weather Temp
°C
Press
MSL
hPa
Rain since
9am
mm
Dir  Spd
kts
Gust
kts
Height
m
Period
s
Dir
16/11:30pm ENE 9 13 - - - - - - - 10.8 1020.7 0.0
16/11:00pm ENE 9 13 - - - - - - - 10.8 1020.9 0.0
16/10:30pm ENE 10 15 - - - - - - - 10.7 1021.4 0.0
16/10:00pm ENE 10 14 - - - - - - - 10.7 1021.8 0.0
16/09:30pm ENE 7 11 - - - - - - - 10.4 1022.2 0.0
16/09:00pm ENE 9 12 - - - - - - - 10.8 1022.3 0.0
16/08:30pm ENE 8 14 - - - - - - - 11.1 1022.1 0.0
16/08:00pm ENE 8 13 - - - - - - - 11.4 1021.7 0.0
16/07:30pm ENE 11 17 - - - - - - - 11.3 1021.2 0.0
16/07:00pm ENE 12 16 - - - - - - - 11.3 1021.1 0.0
16/06:30pm ENE 12 17 - - - - - - - 11.4 1021.1 0.0
16/06:00pm ENE 10 16 - - - - - - - 11.4 1021.1 0.0
16/05:30pm E 9 17 - - - - - - - 11.5 1020.9 0.0
16/05:00pm E 10 16 - - - - - - - 12.2 1021.2 0.0
16/04:30pm E 11 17 - - - - - - - 12.6 1021.1 0.0
16/04:00pm E 10 17 - - - - - - - 13.0 1021.2 0.0
16/03:30pm E 10 17 - - - - - - - 13.4 1021.3 0.0
16/03:00pm E 12 18 - - - - - - - 13.2 1021.4 0.0
16/02:30pm E 10 17 - - - - - - - 13.8 1021.6 0.0
16/02:00pm E 10 16 - - - - - - - 14.2 1021.6 0.0
16/01:30pm E 9 15 - - - - - - - 14.3 1021.9 0.0
16/01:00pm E 10 17 - - - - - - - 14.4 1022.2 0.0
16/12:30pm E 9 14 - - - - - - - 14.1 1022.7 0.0
16/12:00pm E 9 14 - - - - - - - 13.7 1023.2 0.0
16/11:30am ENE 10 15 - - - - - - - 13.7 1023.7 0.0
16/11:00am ENE 8 11 - - - - - - - 13.0 1024.0 0.0
16/10:30am ENE 9 13 - - - - - - - 13.0 1024.3 0.0
16/10:00am ENE 10 14 - - - - - - - 12.2 1024.6 0.0
16/09:30am NE 8 12 - - - - - - - 11.8 1024.9 0.0
16/09:00am NNE 5 8 - - - - - - - 11.0 1025.1 0.0
16/08:30am NNE 8 10 - - - - - - - 10.3 1025.2 0.0
16/08:00am NNE 6 9 - - - - - - - 10.4 1025.2 0.0
16/07:30am ENE 8 11 - - - - - - - 10.2 1025.1 0.0
16/07:00am N 1 5 - - - - - - - 6.6 1025.1 0.0
16/06:30am NE 3 5 - - - - - - - 6.6 1025.0 0.0
16/06:00am E 1 2 - - - - - - - 3.9 1024.9 0.0
16/05:30am ENE 2 3 - - - - - - - 5.6 1024.9 0.0
16/05:00am SE 2 3 - - - - - - - 5.7 1024.8 0.0
16/04:30am S 3 3 - - - - - - - 6.4 1024.6 0.0
16/04:00am CALM 0 0 - - - - - - - 7.1 1024.8 0.0
16/03:30am CALM 0 0 - - - - - - - 7.1 1025.0 0.0
16/03:00am CALM 0 0 - - - - - - - 6.8 1025.1 0.0
16/02:30am CALM 0 0 - - - - - - - 6.6 1025.4 0.0
16/02:00am CALM 0 0 - - - - - - - 6.4 1025.6 0.0
16/01:30am NE 2 3 - - - - - - - 7.0 1025.7 0.0
16/01:00am SSE 3 4 - - - - - - - 5.9 1025.8 0.0
16/12:30am SE 2 3 - - - - - - - 5.1 1025.9 0.0
16/12:00am CALM 0 0 - - - - - - - 4.3 1026.0 0.0
 
Date/Time
EST
Wind Sea
Height
m
Swell Vis
km
Cloud Weather Temp
°C
Press
MSL
hPa
Rain since
9am
mm
Dir  Spd
kts
Gust
kts
Height
m
Period
s
Dir
15/11:30pm CALM 0 1 - - - - - - - 5.1 1026.1 0.0
15/11:00pm CALM 0 0 - - - - - - - 5.8 1026.2 0.0
15/10:30pm N 1 3 - - - - - - - 6.8 1026.4 0.0
15/10:00pm E 2 4 - - - - - - - 8.5 1026.3 0.0
15/09:30pm E 3 5 - - - - - - - 8.2 1026.2 0.0
15/09:00pm E 3 5 - - - - - - - 8.7 1026.1 0.0
15/08:30pm ESE 4 5 - - - - - - - 9.3 1026.1 0.0
15/08:00pm E 3 5 - - - - - - - 9.8 1025.9 0.0
15/07:30pm E 4 5 - - - - - - - 10.5 1026.0 0.0
15/07:00pm ESE 3 4 - - - - - - - 10.6 1025.8 0.0
15/06:30pm ESE 2 3 - - - - - - - 10.6 1025.8 0.0
15/06:00pm E 2 4 - - - - - - - 11.0 1025.7 0.0
15/05:30pm ESE 2 3 - - - - - - - 11.4 1025.5 0.0
15/05:00pm SSE 2 3 - - - - - - - 11.7 1025.5 0.0
15/04:30pm SSE 5 7 - - - - - - - 11.8 1025.6 0.0
15/04:00pm SSE 4 7 - - - - - - - 12.1 1025.8 0.0
15/03:30pm SE 2 4 - - - - - - - 12.4 1026.0 0.0
15/03:00pm E 2 4 - - - - - - - 12.5 1026.1 0.0
15/02:30pm NNE 3 4 - - - - - - - 12.4 1026.2 0.0
15/02:00pm ENE 4 6 - - - - - - - 12.3 1026.3 0.0
15/01:30pm E 3 5 - - - - - - - 12.3 1026.4 0.0
15/01:00pm ESE 3 5 - - - - - - - 12.5 1026.8 0.0
15/12:30pm ENE 4 6 - - - - - - - 13.3 1027.1 0.0
15/12:00pm E 2 4 - - - - - - - 13.2 1027.4 0.0
15/11:30am NNE 6 10 - - - - - - - 12.8 1027.6 0.0
15/11:00am NE 5 7 - - - - - - - 12.2 1027.8 0.0
15/10:30am ENE 4 7 - - - - - - - 12.6 1028.0 0.0
15/10:00am NNE 2 5 - - - - - - - 12.4 1028.0 0.0
15/09:30am NNE 4 7 - - - - - - - 11.6 1028.0 0.0
15/09:00am NNE 2 4 - - - - - - - 10.4 1028.1 0.0
15/08:30am CALM 0 2 - - - - - - - 9.7 1028.0 0.0
15/08:00am CALM 0 0 - - - - - - - 8.7 1027.9 0.0
15/07:30am CALM 0 0 - - - - - - - 7.9 1027.6 0.0
15/07:00am CALM 0 0 - - - - - - - 6.6 1027.2 0.0
15/06:30am CALM 0 0 - - - - - - - 5.8 1027.1 0.0
15/06:00am CALM 0 1 - - - - - - - 5.6 1026.9 0.0
15/05:30am CALM 0 2 - - - - - - - 4.6 1026.8 0.0
15/05:00am CALM 0 0 - - - - - - - 4.2 1026.7 0.0
15/04:30am CALM 0 0 - - - - - - - 3.2 1026.5 0.0
15/04:00am CALM 0 0 - - - - - - - 4.5 1026.3 0.0
15/03:30am CALM 0 0 - - - - - - - 5.8 1026.2 0.0
15/03:00am CALM 0 0 - - - - - - - 5.2 1026.3 0.0
15/02:30am CALM 0 0 - - - - - - - 5.3 1026.6 0.0
15/02:00am NE 1 1 - - - - - - - 5.7 1026.8 0.0
15/01:30am NNE 3 4 - - - - - - - 6.1 1027.1 0.0
15/01:00am CALM 0 0 - - - - - - - 5.9 1027.3 0.0
15/12:30am CALM 0 0 - - - - - - - 5.9 1027.3 0.0
15/12:00am ENE 1 3 - - - - - - - 7.4 1027.3 0.0
 
Date/Time
EST
Wind Sea
Height
m
Swell Vis
km
Cloud Weather Temp
°C
Press
MSL
hPa
Rain since
9am
mm
Dir  Spd
kts
Gust
kts
Height
m
Period
s
Dir
14/11:30pm NE 3 4 - - - - - - - 8.1 1027.4 0.0
14/11:00pm ENE 2 4 - - - - - - - 8.0 1027.5 0.0
14/10:30pm E 2 4 - - - - - - - 8.8 1027.6 0.0
14/10:00pm E 3 5 - - - - - - - 9.6 1027.7 0.0
14/09:30pm E 4 6 - - - - - - - 9.2 1027.7 0.0
14/09:00pm ESE 4 6 - - - - - - - 8.9 1027.8 0.0
14/08:30pm ESE 2 3 - - - - - - - 8.8 1027.8 0.0
14/08:00pm ESE 3 5 - - - - - - - 9.1 1027.8 0.0
14/07:30pm ESE 3 5 - - - - - - - 9.2 1027.6 0.0
14/07:00pm ESE 5 7 - - - - - - - 9.6 1027.6 0.0
14/06:30pm E 5 7 - - - - - - - 9.8 1027.3 0.0
14/06:00pm E 4 7 - - - - - - - 10.3 1027.1 0.0

Other formats

Comma delimited format used in spreadsheet applications
http://www.bom.gov.au/fwo/IDV60701/IDV60701.94911.axf

JavaScript Object Notation format (JSON) in row-major order
http://www.bom.gov.au/fwo/IDV60701/IDV60701.94911.json

Data quality

Most of these data are generated automatically and are frequently updated. Quality checks on data are not normally performed. It is possible for incorrect values to appear. Refer to information at About Latest Weather Observations and please check the disclaimer before using these data.